Time;durP1;ratioP1;P1;durP2;ratioP2;P2;SDS_P1;SDS_P2;PMS_P1;PMS_P2;Temp;Humidity;BMP_temperature;BMP_pressure;BME280_temperature;BME280_humidity;BME280_pressure;Samples;Min_cycle;Max_cycle;Signal;HPM_P1;HPM_P2
2022/06/24 00:00:58;;;;;;;3.73;1.30;;;;;;;24.52;100.00;93565.88;5048560;28;20247;-62
2022/06/24 00:03:45;;;;;;;2.67;1.17;;;;;;;24.29;100.00;93558.41;5048082;28;20283;-62
2022/06/24 00:06:45;;;;;;;5.00;1.07;;;;;;;24.37;100.00;93557.78;5047921;28;20240;-62
2022/06/24 00:09:30;;;;;;;9.40;1.10;;;;;;;24.54;100.00;93553.72;5047238;28;20274;-62
2022/06/24 00:12:18;;;;;;;3.27;0.97;;;;;;;24.38;100.00;93574.25;5047633;28;20209;-62
2022/06/24 00:15:02;;;;;;;2.20;1.23;;;;;;;24.69;100.00;93568.97;5044238;28;20224;-62
2022/06/24 00:17:46;;;;;;;4.07;1.03;;;;;;;23.98;94.53;93570.78;5051144;28;20209;-62
2022/06/24 00:20:30;;;;;;;2.07;1.00;;;;;;;24.85;100.00;93564.16;5043941;28;20271;-62
2022/06/24 00:23:22;;;;;;;3.30;1.40;;;;;;;24.43;100.00;93564.31;5051396;28;20213;-62
2022/06/24 00:26:06;;;;;;;3.10;1.03;;;;;;;24.52;99.19;93557.28;5059740;28;20224;-62
2022/06/24 00:29:00;;;;;;;2.67;0.90;;;;;;;23.72;97.69;93568.94;5048720;28;20317;-62
2022/06/24 00:32:03;;;;;;;3.67;1.17;;;;;;;23.75;100.00;93559.00;5038917;28;20255;-62
2022/06/24 00:35:01;;;;;;;5.70;0.80;;;;;;;23.57;96.05;93558.69;5052014;28;20200;-61
2022/06/24 00:37:46;;;;;;;4.80;1.00;;;;;;;24.10;100.00;93562.38;5045174;28;20464;-61
2022/06/24 00:40:31;;;;;;;2.20;0.80;;;;;;;24.04;93.45;93556.56;5044641;28;20224;-61
2022/06/24 00:43:27;;;;;;;2.93;0.80;;;;;;;24.64;99.71;93555.97;5045358;28;20636;-61
2022/06/24 00:46:25;;;;;;;3.03;0.80;;;;;;;25.46;100.00;93546.88;5044095;28;20198;-61
2022/06/24 00:49:11;;;;;;;3.70;1.03;;;;;;;25.13;97.81;93555.16;5051269;28;20761;-61
2022/06/24 00:51:55;;;;;;;2.70;0.80;;;;;;;25.36;100.00;93550.41;5044821;28;20473;-61
2022/06/24 00:54:42;;;;;;;0.97;0.80;;;;;;;25.53;96.83;93545.53;5043982;28;20209;-61
2022/06/24 00:57:26;;;;;;;2.47;0.90;;;;;;;25.30;99.66;93553.19;5051478;28;20681;-61
2022/06/24 01:00:12;;;;;;;1.23;0.77;;;;;;;25.21;97.71;93561.00;5043727;28;20264;-61
2022/06/24 01:03:04;;;;;;;1.57;0.87;;;;;;;25.47;100.00;93556.94;5048658;28;20593;-61
2022/06/24 01:05:48;;;;;;;5.57;1.10;;;;;;;25.90;100.00;93547.31;5055577;28;20328;-61
2022/06/24 01:08:33;;;;;;;4.93;1.07;;;;;;;26.03;94.14;93543.09;5052006;28;20232;-62
2022/06/24 01:11:32;;;;;;;2.93;1.23;;;;;;;26.01;100.00;93550.97;5044687;28;20750;-61
2022/06/24 01:14:17;;;;;;;5.40;1.20;;;;;;;25.62;100.00;93547.06;5051304;28;20729;-61
2022/06/24 01:17:02;;;;;;;2.00;0.93;;;;;;;25.50;96.19;93541.19;5056557;28;20307;-62
2022/06/24 01:19:45;;;;;;;2.27;1.10;;;;;;;24.90;98.56;93547.75;5045628;28;20287;-62
2022/06/24 01:22:30;;;;;;;3.43;1.20;;;;;;;25.66;92.01;93541.38;5040689;28;20252;-61
2022/06/24 01:25:14;;;;;;;3.87;1.03;;;;;;;25.97;100.00;93543.06;5052223;28;20244;-62
2022/06/24 01:27:59;;;;;;;1.53;0.90;;;;;;;25.11;95.09;93549.41;5048372;28;20286;-61
2022/06/24 01:30:43;;;;;;;3.40;0.97;;;;;;;26.18;72.72;93541.03;5043537;28;20328;-62
2022/06/24 01:33:28;;;;;;;5.93;1.30;;;;;;;25.66;62.30;93541.38;5047323;28;20221;-61
2022/06/24 01:36:12;;;;;;;4.33;1.47;;;;;;;26.44;56.96;93537.63;5065394;28;20631;-61
2022/06/24 01:38:56;;;;;;;6.23;1.43;;;;;;;26.24;55.16;93538.22;5047959;28;20639;-61
2022/06/24 01:41:40;;;;;;;4.60;1.07;;;;;;;26.47;52.52;93536.94;5048802;28;20311;-62
2022/06/24 01:44:26;;;;;;;2.87;0.97;;;;;;;26.54;52.92;93531.94;5037651;28;20205;-62
2022/06/24 01:47:10;;;;;;;3.57;0.90;;;;;;;26.88;52.43;93520.63;5051083;28;20335;-62
2022/06/24 01:49:54;;;;;;;7.60;1.23;;;;;;;26.36;53.05;93531.84;5050987;28;20205;-62
2022/06/24 01:52:39;;;;;;;3.97;1.37;;;;;;;26.32;52.86;93537.56;5048073;28;20261;-62
2022/06/24 01:55:23;;;;;;;2.13;0.93;;;;;;;26.44;52.70;93529.00;5048626;28;20644;-62
2022/06/24 01:58:07;;;;;;;2.27;1.10;;;;;;;26.49;52.74;93527.59;5050929;28;20292;-62
2022/06/24 02:00:52;;;;;;;2.93;1.20;;;;;;;26.05;52.93;93528.00;5051435;28;20256;-62
2022/06/24 02:03:38;;;;;;;1.23;0.80;;;;;;;26.45;52.65;93530.47;5050279;28;20225;-62
2022/06/24 02:06:22;;;;;;;3.77;0.90;;;;;;;26.50;52.23;93534.78;5045704;28;20784;-62
2022/06/24 02:09:07;;;;;;;4.53;1.10;;;;;;;26.59;51.71;93524.78;5052345;28;20252;-62
2022/06/24 02:14:54;;;;;;;3.47;1.00;;;;;;;26.38;50.72;93531.84;5049050;28;20344;-62
2022/06/24 02:17:38;;;;;;;5.67;1.10;;;;;;;25.94;52.83;93535.84;5054665;28;20257;-62
2022/06/24 02:20:22;;;;;;;2.97;1.00;;;;;;;26.24;52.36;93526.00;5040939;28;20213;-62
2022/06/24 02:23:06;;;;;;;3.47;1.13;;;;;;;26.30;51.58;93526.06;5049396;28;20228;-62
2022/06/24 02:25:50;;;;;;;2.80;1.13;;;;;;;26.30;51.06;93523.91;5050307;28;20682;-62
2022/06/24 02:28:35;;;;;;;3.90;1.17;;;;;;;26.75;50.84;93524.84;5051851;28;20225;-62
2022/06/24 02:31:19;;;;;;;2.07;1.00;;;;;;;26.65;51.67;93521.94;5050082;28;20225;-62
2022/06/24 02:34:03;;;;;;;4.47;1.60;;;;;;;26.73;51.51;93521.97;5051392;28;20717;-62
2022/06/24 02:36:47;;;;;;;6.33;1.27;;;;;;;26.82;52.10;93508.34;5051989;28;20275;-62
2022/06/24 02:39:31;;;;;;;2.30;1.17;;;;;;;27.07;51.40;93503.41;5049389;28;20205;-62
2022/06/24 02:42:16;;;;;;;4.53;1.30;;;;;;;27.09;50.66;93514.94;5042459;28;20213;-62
2022/06/24 02:45:00;;;;;;;4.20;1.80;;;;;;;27.03;50.26;93517.81;5044158;28;20240;-62
2022/06/24 02:47:44;;;;;;;4.40;1.70;;;;;;;27.25;49.90;93520.72;5046531;28;20248;-62
2022/06/24 02:50:28;;;;;;;3.40;1.20;;;;;;;27.09;51.00;93526.44;5051347;28;20626;-62
2022/06/24 02:53:16;;;;;;;6.83;1.40;;;;;;;27.12;51.33;93519.25;5051184;28;20241;-62
2022/06/24 02:56:09;;;;;;;9.27;1.47;;;;;;;26.75;51.40;93521.97;5048500;28;20229;-62
2022/06/24 02:58:53;;;;;;;5.63;1.60;;;;;;;26.44;53.27;93520.38;5036488;28;20217;-62
2022/06/24 03:01:37;;;;;;;6.07;1.80;;;;;;;26.43;53.70;93504.56;5044687;28;20220;-62
2022/06/24 03:04:21;;;;;;;9.90;1.90;;;;;;;26.71;52.08;93513.34;5045047;28;20289;-62
2022/06/24 03:07:05;;;;;;;6.60;1.50;;;;;;;26.74;51.86;93511.19;5046152;28;20202;-62
2022/06/24 03:09:49;;;;;;;5.03;1.37;;;;;;;26.59;52.42;93513.28;5051185;28;20201;-62
2022/06/24 03:12:33;;;;;;;4.73;1.30;;;;;;;26.73;52.40;93524.84;5036706;28;20270;-62
2022/06/24 03:15:18;;;;;;;5.43;1.60;;;;;;;26.60;52.07;93514.75;5048867;28;20233;-62
2022/06/24 03:18:02;;;;;;;7.17;1.50;;;;;;;26.52;52.34;93503.19;5046841;28;20193;-62
2022/06/24 03:20:46;;;;;;;3.00;1.40;;;;;;;26.36;53.70;93503.81;5050044;28;20597;-62
2022/06/24 03:23:30;;;;;;;4.03;1.07;;;;;;;26.53;53.17;93507.53;5048424;28;20733;-62
2022/06/24 03:26:14;;;;;;;6.23;1.60;;;;;;;26.50;53.22;93508.94;5045556;28;20268;-62
2022/06/24 03:28:58;;;;;;;4.80;1.43;;;;;;;26.79;53.07;93501.84;5050679;28;20217;-62
2022/06/24 03:31:42;;;;;;;8.73;1.90;;;;;;;26.42;52.86;93494.50;5046115;28;20205;-62
2022/06/24 03:34:26;;;;;;;5.83;1.60;;;;;;;26.49;53.06;93499.59;5047870;28;20205;-62
2022/06/24 03:37:10;;;;;;;7.13;1.63;;;;;;;26.44;53.35;93503.16;5042008;28;20249;-62
2022/06/24 03:39:54;;;;;;;4.53;1.50;;;;;;;26.35;53.89;93501.69;5050485;28;20341;-62
2022/06/24 03:42:38;;;;;;;3.67;1.50;;;;;;;26.26;54.04;93508.78;5036860;28;20239;-62
2022/06/24 03:45:22;;;;;;;5.30;1.33;;;;;;;26.28;53.22;93508.81;5046344;28;20709;-62
2022/06/24 03:48:06;;;;;;;7.50;1.37;;;;;;;26.42;53.30;93514.63;5050156;28;20220;-62
2022/06/24 03:50:50;;;;;;;5.37;1.60;;;;;;;26.23;54.40;93513.78;5052011;28;20294;-62
2022/06/24 03:53:34;;;;;;;8.43;1.30;;;;;;;25.98;55.03;93512.91;5050380;28;20251;-62
2022/06/24 03:56:18;;;;;;;4.23;1.47;;;;;;;26.93;52.02;93515.59;5055999;28;20267;-61
2022/06/24 03:59:03;;;;;;;6.53;1.40;;;;;;;26.71;52.13;93510.47;5055560;28;20254;-62
2022/06/24 04:01:47;;;;;;;9.23;1.30;;;;;;;26.68;51.75;93516.91;5050278;28;20701;-62
2022/06/24 04:04:31;;;;;;;3.23;1.00;;;;;;;26.73;52.87;93521.22;5050164;28;20707;-62
2022/06/24 04:07:15;;;;;;;5.63;1.30;;;;;;;26.80;51.67;93514.06;5050785;28;20201;-62
2022/06/24 04:09:59;;;;;;;6.90;2.03;;;;;;;26.60;52.31;93519.75;5047931;28;20275;-62
2022/06/24 04:12:43;;;;;;;8.43;1.30;;;;;;;26.56;53.24;93526.91;5057270;28;20631;-62
2022/06/24 04:15:27;;;;;;;8.50;2.10;;;;;;;26.65;54.04;93521.94;5046829;28;20638;-60
2022/06/24 04:18:11;;;;;;;12.93;1.40;;;;;;;25.55;88.65;93526.16;5052777;28;20209;-65
2022/06/24 04:20:55;;;;;;;8.10;1.70;;;;;;;25.81;94.46;93525.69;5051239;28;20662;-62
2022/06/24 04:23:41;;;;;;;8.50;2.00;;;;;;;25.93;91.65;93531.53;5054132;28;20201;-63
2022/06/24 04:26:25;;;;;;;3.83;1.70;;;;;;;25.05;71.87;93522.81;5052215;28;20210;-60
2022/06/24 04:29:09;;;;;;;2.67;1.40;;;;;;;25.93;58.20;93516.44;5055787;28;20221;-61
2022/06/24 04:31:54;;;;;;;10.00;1.90;;;;;;;26.55;55.83;93533.38;5053537;28;20197;-61
2022/06/24 04:34:38;;;;;;;4.20;1.40;;;;;;;27.04;53.50;93533.59;5055486;28;20205;-62
2022/06/24 04:37:23;;;;;;;6.73;1.60;;;;;;;27.10;52.52;93527.88;5055049;28;20246;-62
2022/06/24 04:40:12;;;;;;;4.97;1.40;;;;;;;27.32;53.37;93530.81;5054410;28;20201;-62
2022/06/24 04:42:56;;;;;;;3.50;1.30;;;;;;;27.28;54.64;93530.81;5045928;28;20240;-62
2022/06/24 04:45:42;;;;;;;3.43;1.30;;;;;;;26.85;75.96;93533.50;5052275;28;20244;-62
2022/06/24 04:48:27;;;;;;;6.03;1.60;;;;;;;26.41;83.84;93533.31;5051805;28;20260;-62
2022/06/24 04:51:12;;;;;;;4.53;1.50;;;;;;;26.47;97.61;93542.69;5048911;28;20285;-63
2022/06/24 04:53:56;;;;;;;3.73;1.00;;;;;;;26.59;96.33;93542.03;5053230;28;20335;-63
2022/06/24 04:56:40;;;;;;;3.60;1.07;;;;;;;26.69;96.16;93539.19;5043504;28;20813;-63
2022/06/24 04:59:24;;;;;;;7.57;1.30;;;;;;;26.47;86.85;93553.47;5055680;28;20208;-63
2022/06/24 05:02:08;;;;;;;1.77;1.00;;;;;;;27.06;100.00;93542.25;5052337;28;20201;-63
2022/06/24 05:04:52;;;;;;;2.70;1.10;;;;;;;27.05;99.94;93543.66;5055639;28;20696;-63
2022/06/24 05:07:38;;;;;;;5.77;1.20;;;;;;;26.92;96.02;93542.91;5054077;28;20313;-63
2022/06/24 05:10:22;;;;;;;3.13;1.00;;;;;;;27.22;89.13;93545.88;5052074;28;20193;-63
2022/06/24 05:13:06;;;;;;;2.80;0.83;;;;;;;26.82;95.44;93539.97;5044548;28;20241;-63
2022/06/24 05:15:50;;;;;;;5.57;1.50;;;;;;;26.68;98.71;93540.63;5050969;28;20229;-63
2022/06/24 05:18:34;;;;;;;9.43;1.37;;;;;;;25.62;84.47;93547.06;5044960;28;20801;-63
2022/06/24 05:21:18;;;;;;;4.43;1.40;;;;;;;27.27;59.25;93538.00;5049460;28;20282;-62
2022/06/24 05:24:02;;;;;;;6.87;1.10;;;;;;;27.72;51.77;93548.16;5052871;28;20324;-62
2022/06/24 05:26:47;;;;;;;6.70;1.63;;;;;;;27.66;50.11;93541.66;5052498;28;20212;-63
2022/06/24 05:29:31;;;;;;;5.27;1.50;;;;;;;27.22;50.75;93539.44;5048600;28;20205;-63
2022/06/24 05:32:15;;;;;;;7.20;1.73;;;;;;;27.89;48.80;93542.41;5051332;28;20338;-63
2022/06/24 05:34:59;;;;;;;3.80;1.40;;;;;;;27.59;49.56;93535.19;5052467;28;20712;-63
2022/06/24 05:37:43;;;;;;;3.47;1.40;;;;;;;28.03;47.74;93522.22;5053272;28;20229;-63
2022/06/24 05:40:27;;;;;;;4.67;1.73;;;;;;;27.62;48.62;93519.38;5049832;28;20281;-63
2022/06/24 05:43:10;;;;;;;6.27;1.43;;;;;;;28.30;47.88;93517.91;5044360;28;20238;-63
2022/06/24 05:45:54;;;;;;;3.00;1.30;;;;;;;28.74;46.84;93519.25;5050716;28;20281;-63
2022/06/24 05:48:39;;;;;;;4.60;1.40;;;;;;;29.35;45.72;93514.66;5053057;28;20256;-64
2022/06/24 05:51:24;;;;;;;4.77;1.40;;;;;;;29.41;46.00;93522.56;5047504;28;20343;-64
2022/06/24 05:57:10;;;;;;;3.50;1.10;;;;;;;29.40;44.82;93529.06;5048291;28;20233;-63
2022/06/24 05:59:54;;;;;;;6.30;1.57;;;;;;;28.35;47.85;93522.22;5039289;28;20615;-63
2022/06/24 06:02:39;;;;;;;5.90;1.63;;;;;;;29.74;44.81;93531.75;5048337;28;20313;-63
2022/06/24 06:05:23;;;;;;;5.27;1.50;;;;;;;29.03;46.88;93526.34;5049416;28;20248;-63
2022/06/24 06:08:07;;;;;;;4.03;1.33;;;;;;;29.83;46.62;93515.75;5051924;28;20234;-63
2022/06/24 06:10:51;;;;;;;4.97;1.80;;;;;;;29.59;45.69;93525.34;5046682;28;20182;-63
2022/06/24 06:13:35;;;;;;;8.40;1.67;;;;;;;28.81;46.23;93523.56;5050307;28;20200;-63
2022/06/24 06:16:19;;;;;;;6.67;1.63;;;;;;;29.09;46.14;93534.25;5046722;28;20291;-63
2022/06/24 06:19:03;;;;;;;3.23;1.50;;;;;;;29.21;44.75;93540.69;5045242;28;20341;-63
2022/06/24 06:21:47;;;;;;;10.33;1.77;;;;;;;28.55;47.24;93539.47;5037314;28;20548;-63
2022/06/24 06:24:32;;;;;;;8.10;1.87;;;;;;;27.66;49.07;93528.00;5047260;28;20221;-63
2022/06/24 06:27:16;;;;;;;9.23;1.60;;;;;;;28.03;48.81;93530.88;5053270;28;20233;-63
2022/06/24 06:30:00;;;;;;;8.40;2.07;;;;;;;28.49;47.37;93530.84;5045836;28;20536;-63
2022/06/24 06:32:44;;;;;;;8.43;1.70;;;;;;;28.69;46.83;93535.13;5051297;28;20224;-63
2022/06/24 06:35:28;;;;;;;6.70;2.00;;;;;;;28.30;47.48;93526.56;5047760;28;20201;-63
2022/06/24 06:38:12;;;;;;;7.33;2.23;;;;;;;29.02;45.83;93535.72;5047460;28;20263;-64
2022/06/24 06:40:56;;;;;;;6.37;1.63;;;;;;;28.32;45.96;93523.69;5048785;28;20583;-65
2022/06/24 06:43:39;;;;;;;5.47;1.63;;;;;;;28.47;46.82;93527.22;5044512;28;20197;-65
2022/06/24 06:46:23;;;;;;;9.60;2.20;;;;;;;29.19;46.09;93526.28;5049401;28;20198;-65
2022/06/24 06:49:07;;;;;;;8.73;1.70;;;;;;;28.26;46.03;93529.44;5053591;28;20622;-65
2022/06/24 06:51:51;;;;;;;10.47;2.10;;;;;;;28.29;46.61;93524.41;5047123;28;20636;-64
2022/06/24 06:54:35;;;;;;;7.80;2.03;;;;;;;28.82;44.60;93527.88;5045664;28;20193;-64
2022/06/24 06:57:19;;;;;;;6.70;1.87;;;;;;;29.40;44.23;93520.41;5048205;28;20628;-64
2022/06/24 07:00:05;;;;;;;4.43;1.70;;;;;;;28.92;44.54;93522.06;5043898;28;20798;-64
2022/06/24 07:02:50;;;;;;;6.17;1.80;;;;;;;29.08;44.16;93522.00;5049697;28;20212;-63
2022/06/24 07:05:34;;;;;;;9.73;2.23;;;;;;;28.93;44.43;93518.47;5046654;28;20289;-64
2022/06/24 07:08:19;;;;;;;7.90;2.00;;;;;;;30.03;43.40;93518.53;5044821;28;20209;-65
2022/06/24 07:11:04;;;;;;;7.55;2.00;;;;;;;29.47;43.45;93513.16;5048053;28;20209;-63
2022/06/24 07:13:48;;;;;;;9.98;2.13;;;;;;;30.66;41.87;93520.09;5048726;28;20357;-63
2022/06/24 07:16:32;;;;;;;9.23;1.80;;;;;;;30.93;41.07;93521.94;5047349;28;20281;-63
2022/06/24 07:19:16;;;;;;;9.77;2.00;;;;;;;30.87;41.04;93516.22;5047141;28;20263;-63
2022/06/24 07:22:00;;;;;;;5.75;1.40;;;;;;;30.95;40.81;93504.56;5045358;28;20226;-64
2022/06/24 07:24:44;;;;;;;10.60;2.30;;;;;;;31.17;40.10;93509.38;5049876;28;20575;-62
2022/06/24 07:27:28;;;;;;;8.07;2.15;;;;;;;31.19;39.00;93502.84;5048437;28;20673;-64
2022/06/24 07:30:12;;;;;;;10.43;1.90;;;;;;;31.66;39.03;93511.63;5048649;28;20342;-64
2022/06/24 07:32:57;;;;;;;8.70;2.15;;;;;;;29.57;42.14;93513.06;5047624;28;20197;-64
2022/06/24 07:35:41;;;;;;;7.30;2.00;;;;;;;30.40;40.84;93506.63;5049056;28;20233;-64
2022/06/24 07:38:26;;;;;;;11.15;2.03;;;;;;;30.07;41.83;93512.69;5042002;28;20938;-63
2022/06/24 07:41:10;;;;;;;9.38;1.98;;;;;;;30.08;41.48;93514.13;5044679;28;20589;-64
2022/06/24 07:43:54;;;;;;;7.20;1.98;;;;;;;30.01;41.94;93515.66;5041197;28;20193;-64
2022/06/24 07:46:39;;;;;;;11.32;2.28;;;;;;;30.65;40.51;93507.81;5043136;28;20288;-63
2022/06/24 07:49:23;;;;;;;9.15;2.45;;;;;;;31.26;39.55;93513.59;5048216;28;20197;-63
2022/06/24 07:52:10;;;;;;;6.63;2.28;;;;;;;31.50;39.35;93506.75;5046882;28;20658;-63
2022/06/24 07:56:56;;;;;;;9.40;1.95;;;;;;;31.74;39.06;93506.41;5052562;28;20221;-63
2022/06/24 07:57:59;;;;;;;11.57;2.53;;;;;;;31.54;39.46;93509.56;5049433;28;20282;-63
2022/06/24 08:00:43;;;;;;;4.53;2.00;;;;;;;31.80;38.45;93501.97;5046880;28;20233;-64
2022/06/24 08:03:27;;;;;;;11.40;2.45;;;;;;;31.00;40.02;93498.72;5043574;28;20276;-64
2022/06/24 08:06:11;;;;;;;9.25;2.05;;;;;;;31.40;39.22;93504.00;5045112;28;20204;-64
2022/06/24 08:08:55;;;;;;;12.00;2.20;;;;;;;31.63;39.21;93496.44;5049409;28;20283;-64
2022/06/24 08:11:40;;;;;;;6.03;1.40;;;;;;;31.50;39.33;93500.97;5043885;28;20202;-64
2022/06/24 08:14:24;;;;;;;7.75;2.25;;;;;;;30.22;43.97;93503.91;5049352;28;20201;-64
2022/06/24 08:17:08;;;;;;;7.72;2.45;;;;;;;30.80;45.87;93514.88;5036327;28;20752;-63
2022/06/24 08:19:53;;;;;;;6.75;2.30;;;;;;;28.93;84.59;93509.81;5038875;28;20201;-68
2022/06/24 08:22:37;;;;;;;11.83;3.43;;;;;;;28.54;97.31;93502.72;5047417;28;20302;-68
2022/06/24 08:25:21;;;;;;;12.23;3.00;;;;;;;28.84;96.46;93499.03;5044900;28;20204;-68
2022/06/24 08:28:05;;;;;;;11.03;2.83;;;;;;;28.68;89.30;93493.31;5040859;28;20202;-66
2022/06/24 08:30:49;;;;;;;13.30;3.30;;;;;;;29.06;98.01;93483.78;5043645;28;20669;-63
2022/06/24 08:33:33;;;;;;;12.40;3.07;;;;;;;29.54;95.64;93483.50;5042175;28;20272;-61
2022/06/24 08:36:17;;;;;;;11.43;2.70;;;;;;;29.68;97.39;93482.69;5046664;28;20221;-62
2022/06/24 08:39:03;;;;;;;8.55;2.78;;;;;;;30.05;97.32;93475.16;5052507;28;20198;-63
2022/06/24 08:41:51;;;;;;;8.40;2.45;;;;;;;29.84;88.28;93479.66;5045972;28;20237;-63
2022/06/24 08:44:36;;;;;;;8.00;2.40;;;;;;;30.14;92.60;93482.28;5048063;28;21101;-62
2022/06/24 08:47:20;;;;;;;6.43;2.22;;;;;;;30.48;88.61;93477.63;5036027;28;20201;-62
2022/06/24 08:50:07;;;;;;;5.50;1.90;;;;;;;30.88;90.41;93474.28;5042475;28;21067;-62
2022/06/24 08:52:53;;;;;;;8.30;2.60;;;;;;;30.83;97.12;93472.88;5051403;28;20200;-62
2022/06/24 08:55:40;;;;;;;9.00;2.78;;;;;;;30.87;95.20;93477.91;5045810;28;20205;-62
2022/06/24 08:58:24;;;;;;;6.72;2.22;;;;;;;30.67;95.20;93463.69;5041576;28;20205;-62
2022/06/24 09:01:13;;;;;;;5.07;1.75;;;;;;;30.62;89.94;93462.28;5050192;28;20220;-63
2022/06/24 09:03:57;;;;;;;8.10;2.03;;;;;;;32.60;47.83;93464.34;5050356;28;20307;-63
2022/06/24 09:06:41;;;;;;;5.55;1.90;;;;;;;33.74;40.17;93463.44;5049120;28;20205;-63
2022/06/24 09:09:26;;;;;;;6.68;2.13;;;;;;;34.60;38.76;93468.53;5038934;28;20198;-63
2022/06/24 09:12:12;;;;;;;4.07;1.45;;;;;;;34.21;36.65;93459.38;5047913;28;20204;-63
2022/06/24 09:15:01;;;;;;;6.05;1.77;;;;;;;34.37;37.14;93447.34;5046437;28;20324;-63
2022/06/24 09:17:46;;;;;;;8.68;2.10;;;;;;;34.62;38.93;93448.09;5047816;28;20249;-63
2022/06/24 09:20:30;;;;;;;4.93;1.65;;;;;;;34.39;36.41;93444.34;5043807;28;20255;-63
2022/06/24 09:23:14;;;;;;;5.88;1.63;;;;;;;34.33;36.88;93445.22;5050697;28;20193;-64
2022/06/24 09:26:02;;;;;;;6.15;2.00;;;;;;;34.93;34.10;93438.53;5050027;28;20252;-63
2022/06/24 09:28:53;;;;;;;6.40;1.75;;;;;;;35.24;33.41;93442.00;5046605;28;20276;-63
2022/06/24 09:31:38;;;;;;;5.43;1.50;;;;;;;34.43;33.03;93438.44;5047376;28;20212;-63
2022/06/24 09:34:22;;;;;;;10.68;2.10;;;;;;;34.75;32.35;93440.47;5052339;28;20848;-63
2022/06/24 09:37:07;;;;;;;6.68;2.00;;;;;;;35.73;32.55;93428.84;5051011;28;20244;-63
2022/06/24 09:39:51;;;;;;;6.18;1.67;;;;;;;36.21;31.69;93430.19;5047767;28;20255;-63
2022/06/24 09:42:34;;;;;;;4.78;1.30;;;;;;;36.66;29.62;93419.88;5037160;28;20240;-63
2022/06/24 09:45:19;;;;;;;8.85;1.50;;;;;;;37.25;27.51;93416.22;5045556;28;20674;-63
2022/06/24 09:48:03;;;;;;;6.88;1.77;;;;;;;35.79;30.58;93420.63;5051099;28;20197;-63
2022/06/24 09:50:48;;;;;;;4.47;1.90;;;;;;;35.00;32.84;93407.75;5049989;28;20197;-63
2022/06/24 09:53:35;;;;;;;7.53;1.83;;;;;;;36.04;28.28;93408.84;5048556;28;20737;-64
2022/06/24 09:56:20;;;;;;;3.55;1.40;;;;;;;36.19;29.07;93403.97;5048117;28;20217;-63
2022/06/24 10:02:15;;;;;;;4.38;1.60;;;;;;;35.26;31.50;93393.13;5047833;28;20201;-64
2022/06/24 10:05:02;;;;;;;4.38;1.70;;;;;;;34.76;29.73;93397.50;5043842;28;20199;-63
2022/06/24 10:07:47;;;;;;;5.78;1.73;;;;;;;35.91;26.88;93396.19;5048116;28;20678;-63
2022/06/24 10:10:34;;;;;;;6.45;1.33;;;;;;;37.35;24.09;93391.72;5049424;28;20263;-64
2022/06/24 10:13:26;;;;;;;6.20;1.85;;;;;;;38.11;25.34;93398.22;5041008;28;20301;-65
2022/06/24 10:16:10;;;;;;;4.38;1.60;;;;;;;38.77;23.83;93401.19;5043429;28;20228;-64
2022/06/24 10:18:56;;;;;;;6.55;2.25;;;;;;;38.91;23.97;93384.47;5050776;28;20272;-63
2022/06/24 10:21:40;;;;;;;4.50;1.50;;;;;;;39.07;22.23;93383.78;5047114;28;20895;-65
2022/06/24 10:24:39;;;;;;;8.05;2.10;;;;;;;41.60;19.26;93385.66;5044679;28;20193;-64
2022/06/24 10:27:58;;;;;;;5.85;1.50;;;;;;;39.09;21.96;93384.38;5043557;28;20751;-64
2022/06/24 10:30:56;;;;;;;7.70;2.03;;;;;;;37.79;23.77;93371.69;5048916;28;20573;-63
2022/06/24 10:33:40;;;;;;;4.65;1.48;;;;;;;37.52;24.39;93371.34;5040229;28;20238;-63
2022/06/24 10:36:31;;;;;;;5.45;1.60;;;;;;;41.00;19.73;93378.59;5042509;28;20705;-64
2022/06/24 10:39:21;;;;;;;6.80;1.95;;;;;;;40.19;20.88;93376.91;5050838;28;20313;-64
2022/06/24 10:42:07;;;;;;;8.70;2.13;;;;;;;38.70;21.84;93364.88;5047288;28;20260;-66
2022/06/24 10:44:59;;;;;;;6.10;1.58;;;;;;;39.07;21.13;93372.75;5047999;28;20638;-65
2022/06/24 10:47:43;;;;;;;5.30;1.50;;;;;;;38.60;23.28;93377.06;5052489;28;20212;-65
2022/06/24 10:50:27;;;;;;;5.60;1.70;;;;;;;41.03;22.17;93362.25;5045766;28;20245;-65
2022/06/24 10:53:11;;;;;;;4.45;1.20;;;;;;;39.96;20.97;93368.50;5040589;28;20213;-66
2022/06/24 10:55:55;;;;;;;6.68;1.92;;;;;;;41.47;20.20;93365.00;5040743;28;20288;-65
2022/06/24 10:58:39;;;;;;;8.32;2.22;;;;;;;41.20;20.37;93365.75;5040983;28;20206;-65
2022/06/24 11:01:23;;;;;;;4.47;1.42;;;;;;;41.63;19.73;93351.63;5039794;28;20206;-64
2022/06/24 11:04:11;;;;;;;3.33;1.23;;;;;;;41.85;18.85;93344.44;5047631;28;20217;-63
2022/06/24 11:07:12;;;;;;;7.07;1.52;;;;;;;38.80;21.71;93334.44;5048339;28;20197;-62
2022/06/24 11:09:56;;;;;;;4.90;1.48;;;;;;;39.65;21.51;93330.44;5049544;28;20209;-64
2022/06/24 11:12:40;;;;;;;4.13;1.63;;;;;;;40.52;20.24;93320.16;5045894;28;20209;-64
2022/06/24 11:15:34;;;;;;;6.10;1.83;;;;;;;40.09;20.90;93327.50;5046987;28;20634;-65
2022/06/24 11:18:19;;;;;;;3.00;1.20;;;;;;;39.92;20.84;93326.94;5049604;28;20205;-65
2022/06/24 11:21:07;;;;;;;4.90;1.70;;;;;;;41.71;19.91;93327.63;5049031;28;20200;-65
2022/06/24 11:23:54;;;;;;;5.43;1.40;;;;;;;41.46;20.87;93322.41;5047393;28;20225;-65
2022/06/24 11:26:39;;;;;;;6.25;1.67;;;;;;;41.45;20.52;93326.16;5046281;28;20259;-65
2022/06/24 11:29:23;;;;;;;5.05;1.23;;;;;;;39.90;21.08;93324.81;5049265;28;20194;-65
2022/06/24 11:32:07;;;;;;;9.38;1.90;;;;;;;38.87;21.56;93326.06;5043927;28;20614;-65
2022/06/24 11:34:51;;;;;;;7.95;1.55;;;;;;;38.58;23.12;93318.56;5042112;28;20197;-65
2022/06/24 11:37:35;;;;;;;5.30;1.70;;;;;;;38.50;23.20;93321.88;5047776;28;20362;-64
2022/06/24 11:40:22;;;;;;;5.57;1.63;;;;;;;39.04;22.81;93317.97;5048936;28;20217;-64
2022/06/24 11:43:11;;;;;;;5.50;1.67;;;;;;;37.91;23.18;93309.03;5039276;28;20591;-65
2022/06/24 11:45:57;;;;;;;6.45;1.88;;;;;;;39.77;21.44;93312.22;5046950;28;20674;-65
2022/06/24 11:48:42;;;;;;;9.10;2.03;;;;;;;39.95;21.21;93295.94;5052936;28;20209;-64
2022/06/24 11:51:26;;;;;;;4.28;1.85;;;;;;;39.18;21.92;93299.72;5042864;28;20202;-64
2022/06/24 11:54:11;;;;;;;5.10;1.50;;;;;;;38.37;22.60;93301.19;5045521;28;20724;-64
2022/06/24 11:56:56;;;;;;;5.22;1.27;;;;;;;37.67;22.03;93304.94;5030163;28;20217;-64
2022/06/24 11:59:41;;;;;;;2.60;1.25;;;;;;;38.08;22.05;93303.25;5048871;28;20255;-64
2022/06/24 12:02:25;;;;;;;5.75;1.30;;;;;;;36.24;24.40;93296.59;5035880;28;20202;-64
2022/06/24 12:05:09;;;;;;;5.78;1.25;;;;;;;36.90;24.14;93302.16;5047506;28;20319;-65
2022/06/24 12:07:55;;;;;;;4.32;1.35;;;;;;;37.60;23.38;93297.94;5044212;28;20201;-64
2022/06/24 12:10:53;;;;;;;3.65;1.25;;;;;;;36.38;25.06;93308.47;5045647;28;20891;-64
2022/06/24 12:13:38;;;;;;;8.10;1.40;;;;;;;36.92;24.20;93310.81;5044191;28;20720;-64
2022/06/24 12:16:29;;;;;;;3.92;1.02;;;;;;;36.51;24.67;93305.09;5047896;28;20229;-67
2022/06/24 12:19:13;;;;;;;4.97;1.42;;;;;;;35.02;26.16;93299.91;5053058;28;20244;-68
2022/06/24 12:22:12;;;;;;;3.92;1.13;;;;;;;36.88;22.70;93300.03;5050382;28;20284;-68
2022/06/24 12:25:09;;;;;;;5.50;0.88;;;;;;;36.06;23.60;93301.56;5051335;28;20205;-68
2022/06/24 12:27:53;;;;;;;5.68;1.35;;;;;;;35.99;23.51;93305.47;5053401;28;20208;-68
2022/06/24 12:30:37;;;;;;;4.25;1.20;;;;;;;35.09;24.01;93313.53;5045763;28;20205;-66
2022/06/24 12:33:21;;;;;;;4.13;1.25;;;;;;;35.44;25.23;93330.63;5048601;28;20209;-66
2022/06/24 12:36:11;;;;;;;3.25;1.33;;;;;;;33.20;32.55;93329.59;5048271;28;20208;-66
2022/06/24 12:38:55;;;;;;;6.93;1.80;;;;;;;32.52;38.65;93355.00;5039704;28;20205;-65
2022/06/24 12:41:48;;;;;;;9.35;2.13;;;;;;;30.60;47.34;93358.94;5039978;28;20213;-68
2022/06/24 12:44:43;;;;;;;8.60;2.42;;;;;;;31.34;49.56;93362.22;5050657;28;20193;-67
2022/06/24 12:50:37;;;;;;;6.57;2.60;;;;;;;27.46;75.71;93349.53;5040445;28;20859;-74
2022/06/24 12:53:21;;;;;;;9.57;2.77;;;;;;;26.25;100.00;93367.31;5049904;28;20602;-75
2022/06/24 12:56:05;;;;;;;11.00;2.73;;;;;;;25.31;94.15;93400.47;5050305;28;20328;-76
2022/06/24 12:58:53;;;;;;;13.10;3.17;;;;;;;24.93;100.00;93428.84;5052312;28;20205;-73
2022/06/24 13:01:42;;;;;;;17.57;4.33;;;;;;;25.08;100.00;93464.78;5052757;28;20208;-67
2022/06/24 13:04:26;;;;;;;12.80;3.80;;;;;;;26.27;100.00;93481.53;5049092;28;20299;-67
2022/06/24 13:07:10;;;;;;;9.53;2.87;;;;;;;25.74;100.00;93481.16;5038670;28;20693;-68
2022/06/24 13:09:54;;;;;;;9.33;2.93;;;;;;;25.77;100.00;93459.66;5048036;28;20229;-66